New Hampton, NH (03256)

8:46 PM EDT on October 25, 2014 (GMT -0400)
KNHWEIRS3 | Change Station
CLOSE
Current Station
Personal Weather Station
Location: Weirs Beach, NH
Elevation: 837 ft
Nearby Weather Stations

Elev 837 ft 43.55 °N, 71.43 °W | Updated 3 minutes ago

Overcast
Overcast
51.9 °F
Feels Like 51.9 °F
N
2.0
Wind Variable Wind from West
Gusts 3.0 mph

Today
High -- | Low -- °F
--% Chance of Precip.
Yesterday
High -- | Low -- °F
Precip. -- in
7:12 AM 5:46 PM
Waxing Crescent, 5% visible
Pressure 29.52 in
Visibility 10.0 miles
Clouds Overcast 7000 ft
Dew Point 48 °F
Humidity 85%
Rainfall 0.00 in
Snow Depth Not available.
UV 0 out of 12
Pollen .40 out of 12
Air Quality Not available.
Flu Activity Sporadic
METAR KLCI 260035Z AUTO 24004KT 10SM OVC070 12/06 A2952 RMK AO1

More Conditions Fewer Conditions

Pressure 29.52 in
Visibility 10.0 miles
Clouds Overcast 7000 ft
Dew Point 48 °F
Humidity 85%
Rainfall 0.00 in
Snow Depth Not available.
UV 0 out of 12
Pollen .40 out of 12
Air Quality Not available.
Flu Activity Sporadic
METAR KLCI 260035Z AUTO 24004KT 10SM OVC070 12/06 A2952 RMK AO1

More Conditions Fewer Conditions

10-Day Weather Forecast

Almanac

Astronomy

Oct. 25, 2014 Rise Set
Actual Time 7:12 AM EDT 5:46 PM EDT
Civil Twilight 6:43 AM EDT 6:16 PM EDT
Nautical Twilight 6:09 AM EDT 6:49 PM EDT
Astronomical Twilight 5:36 AM EDT 7:22 PM EDT
Moon 8:50 AM EDT (10/25) 7:04 PM EDT (10/25)
Length of Visible Light 11h 32m
Length of Day
10h 34m
Tomorrow will be 2m 46s shorter.
Waxing Crescent, 5% of the Moon is Illuminated
Today
Waxing Crescent
Oct 30
First Quarter
Nov 6
Full
Nov 14
Last Quarter
Nov 22
New

Today's Extremes

State Highs State Lows

Community

WunderPhotos

Upload Photos

1,765,052 photos uploaded!

Nearby

Air Quality

  Air Quality AQ Index Pollutant
Saturday Good
PM2.5
Saturday Good
OZONE
Sunday Good
PM2.5
Sunday Good
OZONE
Monday Good
PM2.5
Monday Good
OZONE

Snow Depth

Station Depth Elevation
No new snow has been reported.

Earthquake Activity

City Distance Mag. Time & Date
No recent earthquake activity has been reported nearby.
Minimum magnitude displayed is 2.5.

Coastal Water Temperatures

Place Temperature
No Stations Reporting

Nearby Weather Stations